Time;durP1;ratioP1;P1;durP2;ratioP2;P2;SDS_P1;SDS_P2;PMS_P1;PMS_P2;Temp;Humidity;BMP_temperature;BMP_pressure;BME280_temperature;BME280_humidity;BME280_pressure;Samples;Min_cycle;Max_cycle;Signal;HPM_P1;HPM_P2
2024/02/18 00:01:20;;;;;;;41.80;21.60;;;;;;;3.06;91.47;100052.24;107580;1253;72579;-39
2024/02/18 00:03:48;;;;;;;39.20;22.10;;;;;;;3.07;91.53;100048.06;107638;1253;68366;-39
2024/02/18 00:06:16;;;;;;;43.90;22.10;;;;;;;3.09;91.58;100057.00;107632;1253;73170;-39
2024/02/18 00:08:43;;;;;;;39.90;21.80;;;;;;;3.05;91.73;100046.92;107602;1253;60518;-39
2024/02/18 00:11:11;;;;;;;40.80;21.30;;;;;;;3.13;91.80;100049.95;107645;1253;60347;-39
2024/02/18 00:13:38;;;;;;;40.00;22.20;;;;;;;3.15;92.26;100049.38;107545;1256;73847;-39
2024/02/18 00:16:06;;;;;;;46.50;22.00;;;;;;;3.18;92.50;100049.98;107481;1253;66438;-39
2024/02/18 00:18:34;;;;;;;42.60;22.60;;;;;;;3.20;92.60;100049.20;107594;1253;72694;-39
2024/02/18 00:21:02;;;;;;;44.30;22.50;;;;;;;3.22;92.55;100041.02;107597;1253;60384;-40
2024/02/18 00:23:30;;;;;;;42.50;21.70;;;;;;;3.25;92.64;100043.75;107495;1253;60051;-39
2024/02/18 00:25:57;;;;;;;45.60;22.50;;;;;;;3.27;92.75;100047.15;107592;1253;72603;-40
2024/02/18 00:28:25;;;;;;;40.90;22.70;;;;;;;3.28;92.72;100049.54;107543;1252;67065;-39
2024/02/18 00:30:53;;;;;;;44.40;22.80;;;;;;;3.30;92.62;100049.56;107530;1253;71454;-40
2024/02/18 00:33:21;;;;;;;48.80;24.10;;;;;;;3.32;92.68;100050.81;107608;1253;60442;-40
2024/02/18 00:35:49;;;;;;;47.20;24.30;;;;;;;3.33;92.77;100051.71;107503;1257;59263;-40
2024/02/18 00:38:16;;;;;;;47.60;23.20;;;;;;;3.35;92.67;100052.96;107587;1253;73830;-39
2024/02/18 00:40:44;;;;;;;49.20;24.10;;;;;;;3.37;92.69;100046.60;107543;1253;68411;-39
2024/02/18 00:43:11;;;;;;;49.60;23.30;;;;;;;3.40;92.76;100043.38;107434;1253;71548;-40
2024/02/18 00:45:39;;;;;;;48.00;23.70;;;;;;;3.41;92.80;100040.31;107519;1253;61772;-39
2024/02/18 00:48:06;;;;;;;52.00;25.00;;;;;;;3.42;92.80;100041.40;107359;1253;203675;-39
2024/02/18 00:52:10;;;;;;;50.10;26.20;;;;;;;3.51;93.05;100038.24;104358;1289;601013;-39
2024/02/18 00:54:39;;;;;;;48.50;24.50;;;;;;;3.51;92.91;100037.67;106661;1268;59804;-39
2024/02/18 00:57:06;;;;;;;55.50;26.00;;;;;;;3.53;93.00;100043.48;106691;1264;60032;-39
2024/02/18 00:59:34;;;;;;;50.20;25.20;;;;;;;3.54;92.81;100045.12;106715;1263;70992;-39
2024/02/18 01:02:02;;;;;;;51.90;24.70;;;;;;;3.58;92.82;100040.44;106649;1263;67117;-39
2024/02/18 01:04:29;;;;;;;55.60;26.60;;;;;;;3.62;92.84;100041.83;106659;1266;71382;-39
2024/02/18 01:06:57;;;;;;;50.50;25.50;;;;;;;3.65;92.90;100041.04;106653;1263;188208;-39
2024/02/18 01:09:25;;;;;;;53.30;25.60;;;;;;;3.70;92.83;100038.00;106852;1261;59241;-39
2024/02/18 01:11:53;;;;;;;57.10;27.20;;;;;;;3.71;92.77;100037.17;106030;1267;1003007;-39
2024/02/18 01:14:20;;;;;;;53.20;26.30;;;;;;;3.74;92.80;100040.92;106744;1265;68449;-39
2024/02/18 01:16:49;;;;;;;52.90;25.70;;;;;;;3.78;92.78;100034.38;106771;1263;72697;-40
2024/02/18 01:19:17;;;;;;;53.70;26.10;;;;;;;3.81;92.76;100035.02;106756;1260;60736;-40
2024/02/18 01:21:44;;;;;;;50.50;25.80;;;;;;;3.82;92.72;100036.42;106838;1265;59487;-40
2024/02/18 01:24:12;;;;;;;52.00;25.30;;;;;;;3.83;92.77;100036.08;106870;1260;73059;-40
2024/02/18 01:26:40;;;;;;;51.00;25.60;;;;;;;3.85;92.93;100034.88;106857;1263;68352;-39
2024/02/18 01:29:07;;;;;;;51.20;24.20;;;;;;;3.84;92.94;100033.39;106846;1263;72679;-39
2024/02/18 01:31:35;;;;;;;50.20;24.70;;;;;;;3.87;93.38;100031.67;106848;1267;60405;-39
2024/02/18 01:34:02;;;;;;;51.90;24.60;;;;;;;3.91;93.69;100033.24;107029;1258;59998;-40
2024/02/18 01:36:30;;;;;;;47.90;24.50;;;;;;;3.95;93.78;100031.73;107036;1258;73018;-40
2024/02/18 01:38:58;;;;;;;43.60;22.40;;;;;;;3.99;93.61;100029.71;107016;1262;68839;-40
2024/02/18 01:41:25;;;;;;;45.20;23.80;;;;;;;4.02;93.58;100031.27;107048;1258;71444;-40
2024/02/18 01:43:53;;;;;;;41.00;23.50;;;;;;;4.05;93.56;100030.52;107055;1260;61671;-40
2024/02/18 01:46:21;;;;;;;43.60;23.40;;;;;;;4.07;93.55;100032.65;107082;1258;59606;-40
2024/02/18 01:48:49;;;;;;;42.70;21.70;;;;;;;4.10;93.40;100030.47;106952;1258;72848;-40
2024/02/18 01:51:17;;;;;;;40.50;21.70;;;;;;;4.13;93.66;100034.35;107041;1260;68360;-39
2024/02/18 01:53:44;;;;;;;39.20;21.70;;;;;;;4.15;93.40;100026.43;107009;1260;71370;-40
2024/02/18 01:56:12;;;;;;;37.60;21.50;;;;;;;4.18;93.61;100023.96;107021;1259;60383;-39
2024/02/18 01:58:39;;;;;;;42.90;22.90;;;;;;;4.21;93.60;100027.37;107158;1255;59110;-39
2024/02/18 02:01:07;;;;;;;38.20;20.60;;;;;;;4.22;93.65;100028.41;107337;1255;71822;-40
2024/02/18 02:03:35;;;;;;;40.40;22.90;;;;;;;4.24;93.63;100029.30;107280;1254;68329;-40
2024/02/18 02:06:03;;;;;;;41.10;22.40;;;;;;;4.27;93.80;100030.09;107324;1256;72503;-40
2024/02/18 02:08:31;;;;;;;39.10;21.30;;;;;;;4.35;94.08;100025.73;107424;1254;60393;-39
2024/02/18 02:10:58;;;;;;;39.90;22.00;;;;;;;4.41;94.00;100027.80;107398;1254;60035;-40
2024/02/18 02:13:26;;;;;;;43.40;22.80;;;;;;;4.41;94.04;100026.60;107012;1254;73083;-40
2024/02/18 02:15:54;;;;;;;40.40;21.00;;;;;;;4.42;94.09;100027.95;107259;1257;68437;-39
2024/02/18 02:18:22;;;;;;;40.30;22.00;;;;;;;4.48;94.07;100030.94;107135;1256;73133;-40
2024/02/18 02:20:49;;;;;;;43.70;21.90;;;;;;;4.53;93.98;100033.45;107143;1256;62114;-40
2024/02/18 02:23:17;;;;;;;42.70;22.30;;;;;;;4.56;93.84;100037.55;107154;1255;60217;-40
2024/02/18 02:25:44;;;;;;;41.60;21.80;;;;;;;4.58;93.78;100036.50;107245;1255;72917;-40
2024/02/18 02:28:25;;;;;;;43.10;22.80;;;;;;;4.60;93.84;100038.21;107299;1256;67152;-40
2024/02/18 02:30:53;;;;;;;42.40;22.20;;;;;;;4.63;93.89;100040.52;107304;1256;72668;-40
2024/02/18 02:33:22;;;;;;;41.70;22.30;;;;;;;4.67;93.87;100043.27;107259;1256;60376;-40
2024/02/18 02:35:50;;;;;;;40.50;21.70;;;;;;;4.70;93.97;100043.90;107227;1256;60082;-40
2024/02/18 02:38:17;;;;;;;39.60;22.30;;;;;;;4.75;94.10;100043.02;107343;1256;73017;-39
2024/02/18 02:40:45;;;;;;;38.90;22.50;;;;;;;4.79;93.93;100047.98;107388;1256;69232;-40
2024/02/18 02:43:16;;;;;;;38.70;21.90;;;;;;;4.85;94.16;100053.25;107353;1256;72664;-40
2024/02/18 02:45:44;;;;;;;40.80;22.10;;;;;;;4.93;94.30;100051.60;107358;1256;61688;-40
2024/02/18 02:48:11;;;;;;;40.90;22.40;;;;;;;5.01;94.65;100060.16;107255;1256;59491;-40
2024/02/18 02:50:39;;;;;;;38.00;21.90;;;;;;;5.08;94.55;100063.54;107372;1255;73134;-40
2024/02/18 02:53:06;;;;;;;39.70;22.60;;;;;;;5.11;94.69;100064.39;107312;1260;68432;-40
2024/02/18 02:55:34;;;;;;;45.80;24.00;;;;;;;5.13;94.86;100068.21;107361;1256;70770;-40
2024/02/18 02:58:01;;;;;;;39.10;22.40;;;;;;;5.16;94.84;100071.36;107343;1256;60385;-39
2024/02/18 03:00:32;;;;;;;40.20;23.80;;;;;;;5.19;94.78;100075.08;107192;1256;59084;-39
2024/02/18 03:03:00;;;;;;;43.40;23.30;;;;;;;5.23;94.75;100077.89;107155;1256;73033;-40
2024/02/18 03:05:27;;;;;;;41.80;23.10;;;;;;;5.27;94.81;100075.77;107256;1256;67240;-39
2024/02/18 03:07:55;;;;;;;48.10;24.20;;;;;;;5.29;94.72;100078.09;107282;1256;72734;-40
2024/02/18 03:10:22;;;;;;;42.70;22.80;;;;;;;5.31;94.79;100081.16;107296;1256;61655;-40
2024/02/18 03:12:50;;;;;;;39.80;23.10;;;;;;;5.32;94.72;100084.13;107200;1256;59575;-40
2024/02/18 03:15:18;;;;;;;40.50;23.00;;;;;;;5.34;94.77;100084.95;107177;1256;73075;-39
2024/02/18 03:17:45;;;;;;;39.80;22.60;;;;;;;5.35;94.84;100087.82;107296;1259;67557;-39
2024/02/18 03:20:13;;;;;;;41.20;22.70;;;;;;;5.38;94.95;100086.78;107380;1256;73249;-40
2024/02/18 03:22:41;;;;;;;37.30;21.40;;;;;;;5.41;95.02;100089.02;107226;1256;61688;-40
2024/02/18 03:25:08;;;;;;;42.80;22.90;;;;;;;5.42;94.92;100090.53;107224;1256;59523;-39
2024/02/18 03:27:36;;;;;;;39.30;22.10;;;;;;;5.46;95.02;100087.81;107346;1255;73043;-40
2024/02/18 03:30:05;;;;;;;39.60;22.60;;;;;;;5.53;95.14;100088.97;107311;1256;68708;-40
2024/02/18 03:32:36;;;;;;;39.00;21.70;;;;;;;5.59;95.05;100093.18;107359;1256;72669;-40
2024/02/18 03:35:05;;;;;;;36.30;21.00;;;;;;;5.65;94.97;100095.55;107333;1257;61693;-40
2024/02/18 03:37:33;;;;;;;36.90;20.80;;;;;;;5.71;94.89;100099.13;107415;1256;60057;-40
2024/02/18 03:40:01;;;;;;;34.90;20.30;;;;;;;5.81;94.90;100102.85;107388;1256;73070;-40
2024/02/18 03:42:28;;;;;;;34.50;19.80;;;;;;;5.91;94.69;100108.79;107361;1256;68380;-40
2024/02/18 03:44:56;;;;;;;32.10;19.20;;;;;;;5.97;94.29;100108.52;107341;1256;72661;-40
2024/02/18 03:47:23;;;;;;;30.20;18.70;;;;;;;5.99;94.11;100114.87;107247;1255;61682;-40
2024/02/18 03:49:51;;;;;;;30.60;18.50;;;;;;;6.02;93.96;100113.92;107359;1255;60473;-40
2024/02/18 03:52:19;;;;;;;33.20;18.60;;;;;;;6.03;93.96;100114.83;107366;1254;72306;-40
2024/02/18 03:54:47;;;;;;;28.10;17.90;;;;;;;6.03;93.87;100117.39;107275;1257;67033;-40
2024/02/18 03:57:14;;;;;;;29.10;17.50;;;;;;;6.08;93.70;100117.27;107379;1255;71415;-40
2024/02/18 03:59:42;;;;;;;28.20;17.10;;;;;;;6.12;93.31;100117.70;107236;1257;60466;-40
2024/02/18 04:02:09;;;;;;;33.20;18.20;;;;;;;6.15;92.98;100121.08;107377;1254;60002;-40
2024/02/18 04:04:37;;;;;;;29.10;16.90;;;;;;;6.19;92.82;100119.75;107305;1255;73135;-40
2024/02/18 04:07:05;;;;;;;25.60;16.30;;;;;;;6.22;92.58;100121.13;107279;1255;68717;-40
2024/02/18 04:09:32;;;;;;;27.10;15.70;;;;;;;6.26;92.46;100123.11;107282;1256;72703;-40
2024/02/18 04:12:00;;;;;;;25.90;16.20;;;;;;;6.31;92.07;100122.61;107275;1256;59820;-40
2024/02/18 04:14:28;;;;;;;26.90;16.10;;;;;;;6.34;91.90;100118.79;107292;1254;60009;-40
2024/02/18 04:16:56;;;;;;;26.90;16.20;;;;;;;6.34;91.42;100123.45;107256;1254;73286;-40
2024/02/18 04:19:23;;;;;;;27.10;16.10;;;;;;;6.28;91.04;100124.73;107277;1254;68457;-40
2024/02/18 04:21:51;;;;;;;24.30;15.20;;;;;;;6.27;90.69;100128.65;107285;1257;72695;-40
2024/02/18 04:24:18;;;;;;;20.80;13.40;;;;;;;6.27;90.35;100131.83;107264;1255;60404;-41
2024/02/18 04:26:46;;;;;;;19.60;13.20;;;;;;;6.26;90.05;100135.17;107232;1255;59636;-40
2024/02/18 04:29:14;;;;;;;19.60;12.90;;;;;;;6.28;89.94;100139.77;107257;1257;73037;-41
2024/02/18 04:31:41;;;;;;;17.60;12.00;;;;;;;6.31;89.62;100143.61;107242;1257;68407;-41
2024/02/18 04:34:09;;;;;;;15.60;10.30;;;;;;;6.30;89.30;100142.88;107296;1256;72702;-38
2024/02/18 04:36:36;;;;;;;17.20;11.00;;;;;;;6.27;88.92;100149.66;107354;1257;59621;-39
2024/02/18 04:39:05;;;;;;;19.30;11.30;;;;;;;6.23;88.77;100152.71;107330;1254;60049;-39
2024/02/18 04:41:33;;;;;;;13.20;8.20;;;;;;;6.25;88.49;100158.86;107225;1254;71796;-39
2024/02/18 04:44:00;;;;;;;8.10;5.50;;;;;;;6.24;87.97;100163.59;107216;1256;67393;-39
2024/02/18 04:46:28;;;;;;;7.00;4.50;;;;;;;6.21;87.37;100163.75;107236;1256;72022;-39
2024/02/18 04:48:58;;;;;;;5.00;3.90;;;;;;;6.15;86.65;100165.54;107368;1259;60266;-39
2024/02/18 04:51:26;;;;;;;5.10;3.80;;;;;;;6.04;86.25;100169.38;107371;1257;59679;-39
2024/02/18 04:53:53;;;;;;;4.40;3.50;;;;;;;5.94;86.17;100171.35;107282;1257;73044;-39
2024/02/18 04:56:21;;;;;;;4.20;3.40;;;;;;;5.90;86.16;100174.21;107305;1257;68752;-40
2024/02/18 04:58:48;;;;;;;3.90;2.80;;;;;;;5.87;85.79;100174.11;107323;1256;72696;-39
2024/02/18 05:01:16;;;;;;;4.90;2.60;;;;;;;5.82;85.57;100176.86;107246;1256;61739;-39
2024/02/18 05:03:44;;;;;;;3.10;2.50;;;;;;;5.80;85.50;100180.58;107324;1255;60483;-39
2024/02/18 05:06:12;;;;;;;3.00;2.20;;;;;;;5.79;85.57;100180.98;107386;1254;73847;-39
2024/02/18 05:08:39;;;;;;;3.70;2.70;;;;;;;5.78;85.44;100179.77;107360;1257;67094;-39
2024/02/18 05:11:07;;;;;;;3.20;2.40;;;;;;;5.73;85.16;100181.48;107307;1260;72678;-40
2024/02/18 05:13:34;;;;;;;5.30;2.60;;;;;;;5.70;85.29;100182.71;107330;1255;60292;-40
2024/02/18 05:16:02;;;;;;;2.60;2.30;;;;;;;5.72;85.09;100186.16;107265;1255;60512;-39
2024/02/18 05:18:30;;;;;;;3.60;2.30;;;;;;;5.73;84.68;100194.20;107316;1255;73887;-39
2024/02/18 05:20:58;;;;;;;2.50;2.20;;;;;;;5.73;84.54;100196.93;107288;1257;68435;-40
2024/02/18 05:23:27;;;;;;;3.00;2.10;;;;;;;5.74;84.35;100202.58;107293;1257;71465;-39
2024/02/18 05:25:55;;;;;;;4.10;2.30;;;;;;;5.74;84.44;100204.73;107338;1255;60428;-39
2024/02/18 05:28:23;;;;;;;3.00;2.20;;;;;;;5.72;84.56;100207.68;107220;1254;59226;-40
2024/02/18 05:30:51;;;;;;;2.80;2.40;;;;;;;5.69;84.54;100211.44;107262;1262;73821;-40
2024/02/18 05:33:18;;;;;;;3.30;2.10;;;;;;;5.72;84.46;100211.46;107251;1257;68717;-39
2024/02/18 05:35:46;;;;;;;3.00;2.40;;;;;;;5.73;84.04;100216.14;107225;1256;72715;-39
2024/02/18 05:38:14;;;;;;;2.70;2.10;;;;;;;5.72;83.80;100216.33;107212;1257;61672;-39
2024/02/18 05:40:41;;;;;;;2.90;2.20;;;;;;;5.75;83.81;100220.21;107192;1261;60482;-39
2024/02/18 05:43:09;;;;;;;2.60;2.10;;;;;;;5.77;83.93;100225.16;107190;1256;72575;-39
2024/02/18 05:45:36;;;;;;;3.60;2.30;;;;;;;5.79;83.99;100230.81;107221;1257;67512;-39
2024/02/18 05:48:04;;;;;;;3.40;2.40;;;;;;;5.76;83.66;100233.04;107191;1258;71029;-39
2024/02/18 05:50:32;;;;;;;4.20;2.50;;;;;;;5.76;83.76;100237.52;107235;1258;60911;-39
2024/02/18 05:53:00;;;;;;;3.00;2.50;;;;;;;5.79;83.68;100237.11;107243;1257;58777;-39
2024/02/18 05:55:27;;;;;;;2.50;2.10;;;;;;;5.81;83.63;100243.55;107215;1256;72886;-39
2024/02/18 05:57:55;;;;;;;5.40;2.70;;;;;;;5.85;83.80;100247.23;107210;1257;68373;-39
2024/02/18 06:00:23;;;;;;;3.00;2.50;;;;;;;5.92;83.74;100244.83;107246;1256;72645;-39
2024/02/18 06:02:50;;;;;;;3.60;2.70;;;;;;;5.96;83.69;100249.19;107250;1257;60320;-39
2024/02/18 06:05:18;;;;;;;5.80;3.60;;;;;;;5.95;83.50;100251.31;107226;1256;60441;-39
2024/02/18 06:07:46;;;;;;;4.10;3.10;;;;;;;5.94;83.50;100251.46;107221;1256;73869;-40
2024/02/18 06:10:14;;;;;;;4.20;3.10;;;;;;;5.91;83.51;100251.70;107210;1257;68379;-39
2024/02/18 06:12:42;;;;;;;2.50;2.20;;;;;;;5.90;83.34;100255.27;107205;1256;72735;-39
2024/02/18 06:15:10;;;;;;;3.20;2.10;;;;;;;5.87;82.72;100259.91;107197;1256;60912;-39
2024/02/18 06:17:38;;;;;;;2.40;2.00;;;;;;;5.78;82.32;100260.65;107245;1256;60525;-39
2024/02/18 06:20:10;;;;;;;3.00;2.00;;;;;;;5.71;82.43;100258.02;107231;1257;72864;-39
2024/02/18 06:22:38;;;;;;;2.50;1.90;;;;;;;5.67;82.65;100257.18;107248;1257;68374;-39
2024/02/18 06:25:07;;;;;;;2.80;1.90;;;;;;;5.64;82.93;100263.48;107156;1260;71402;-40
2024/02/18 06:27:35;;;;;;;3.70;2.00;;;;;;;5.64;82.90;100265.33;107130;1256;60907;-40
2024/02/18 06:30:05;;;;;;;3.30;1.60;;;;;;;5.66;82.56;100268.45;107163;1256;60139;-39
2024/02/18 06:32:33;;;;;;;2.20;1.50;;;;;;;5.68;82.33;100265.39;107104;1257;73883;-39
2024/02/18 06:35:02;;;;;;;2.20;1.60;;;;;;;5.70;82.33;100267.27;107126;1256;66503;-39
2024/02/18 06:37:30;;;;;;;1.70;1.50;;;;;;;5.74;82.17;100268.33;107244;1257;71709;-39
2024/02/18 06:39:57;;;;;;;1.80;1.40;;;;;;;5.75;81.91;100267.39;106402;1257;1002866;-39
2024/02/18 06:42:25;;;;;;;1.60;1.50;;;;;;;5.75;81.77;100274.51;107246;1256;60407;-40
2024/02/18 06:44:52;;;;;;;2.40;1.60;;;;;;;5.76;82.06;100277.80;107228;1255;72525;-39
2024/02/18 06:47:20;;;;;;;2.20;1.40;;;;;;;5.80;81.82;100278.46;107227;1256;67692;-40
2024/02/18 06:49:47;;;;;;;1.40;1.20;;;;;;;5.83;81.29;100287.31;107207;1256;72451;-39
2024/02/18 06:52:15;;;;;;;1.40;1.10;;;;;;;5.83;80.76;100285.66;107163;1257;60393;-39
2024/02/18 06:54:43;;;;;;;1.80;1.40;;;;;;;5.78;80.89;100287.21;107000;1258;60621;-40
2024/02/18 06:57:11;;;;;;;2.80;1.60;;;;;;;5.76;81.00;100293.48;107172;1261;73951;-40
2024/02/18 06:59:38;;;;;;;2.40;1.10;;;;;;;5.73;81.06;100297.71;107203;1257;68368;-39
2024/02/18 07:02:06;;;;;;;1.20;1.10;;;;;;;5.73;80.88;100295.52;107046;1262;70453;-39
2024/02/18 07:04:34;;;;;;;1.30;1.20;;;;;;;5.74;80.79;100295.73;107080;1256;60322;-40
2024/02/18 07:07:02;;;;;;;1.20;1.00;;;;;;;5.74;80.65;100298.67;107120;1262;60311;-40
2024/02/18 07:09:29;;;;;;;1.40;1.20;;;;;;;5.77;80.79;100300.21;107159;1259;73854;-39
2024/02/18 07:11:57;;;;;;;1.60;0.90;;;;;;;5.78;80.83;100299.87;107228;1260;68396;-40
2024/02/18 07:14:25;;;;;;;1.80;1.30;;;;;;;5.76;80.69;100300.36;107058;1257;72710;-40
2024/02/18 07:16:52;;;;;;;3.10;1.10;;;;;;;5.72;80.68;100303.49;107069;1262;60442;-40
2024/02/18 07:19:20;;;;;;;1.60;1.20;;;;;;;5.74;80.95;100307.88;107214;1261;60271;-39
2024/02/18 07:21:48;;;;;;;1.40;1.20;;;;;;;5.79;81.03;100310.71;107184;1261;73831;-39
2024/02/18 07:24:15;;;;;;;1.50;1.30;;;;;;;5.86;80.85;100312.17;107241;1258;68530;-40
2024/02/18 07:26:43;;;;;;;2.00;1.30;;;;;;;5.91;80.86;100314.18;107051;1259;72695;-39
2024/02/18 07:29:10;;;;;;;1.90;1.40;;;;;;;5.93;81.08;100313.80;107225;1258;60406;-39
2024/02/18 07:31:39;;;;;;;2.70;1.50;;;;;;;5.89;80.76;100307.48;107219;1259;60284;-40
2024/02/18 07:34:07;;;;;;;2.80;1.40;;;;;;;5.96;80.45;100329.61;107250;1257;73827;-40
2024/02/18 07:36:34;;;;;;;3.20;1.30;;;;;;;5.93;79.66;100334.69;106929;1259;68577;-39
2024/02/18 07:39:03;;;;;;;0.80;0.70;;;;;;;5.88;78.33;100332.81;107090;1262;71982;-39
2024/02/18 07:41:31;;;;;;;0.80;0.80;;;;;;;5.80;78.08;100339.17;107081;1257;60401;-40
2024/02/18 07:43:58;;;;;;;2.00;0.90;;;;;;;5.74;78.27;100340.00;107095;1257;60313;-39
2024/02/18 07:46:28;;;;;;;1.00;0.90;;;;;;;5.68;78.28;100337.58;107082;1262;73863;-39
2024/02/18 07:48:57;;;;;;;1.70;1.10;;;;;;;5.65;78.30;100341.86;105634;1257;1003761;-40
2024/02/18 07:51:28;;;;;;;3.40;1.20;;;;;;;5.65;78.76;100340.41;107061;1259;72798;-40
2024/02/18 07:53:56;;;;;;;1.60;1.10;;;;;;;5.68;78.83;100346.63;107217;1258;61812;-39
2024/02/18 07:56:23;;;;;;;1.60;1.20;;;;;;;5.68;78.59;100348.88;107177;1256;60501;-39
2024/02/18 07:58:51;;;;;;;1.50;1.00;;;;;;;5.64;78.54;100352.04;107233;1257;72973;-40
2024/02/18 08:01:18;;;;;;;0.80;0.70;;;;;;;5.58;78.79;100359.77;107223;1256;69001;-39
2024/02/18 08:03:46;;;;;;;1.10;0.90;;;;;;;5.49;79.34;100366.89;107209;1256;72663;-40
2024/02/18 08:06:14;;;;;;;1.40;0.90;;;;;;;5.42;79.53;100368.17;107157;1256;60874;-39
2024/02/18 08:08:41;;;;;;;0.60;0.60;;;;;;;5.39;79.48;100378.23;107162;1256;60376;-40
2024/02/18 08:11:10;;;;;;;0.80;0.60;;;;;;;5.35;77.46;100383.92;107204;1256;73849;-40
2024/02/18 08:13:38;;;;;;;0.60;0.60;;;;;;;5.26;76.79;100389.67;107240;1262;68422;-40
2024/02/18 08:16:05;;;;;;;0.50;0.50;;;;;;;5.21;76.64;100389.84;107221;1262;73159;-40
2024/02/18 08:18:33;;;;;;;1.40;0.90;;;;;;;5.24;76.55;100392.07;107145;1260;60441;-39
2024/02/18 08:21:01;;;;;;;2.30;1.00;;;;;;;5.31;76.00;100398.55;107206;1256;60293;-40
2024/02/18 08:23:28;;;;;;;0.90;0.70;;;;;;;5.42;75.25;100403.14;107204;1256;72754;-40
2024/02/18 08:25:56;;;;;;;1.90;0.90;;;;;;;5.54;75.14;100407.13;107215;1257;68351;-39
2024/02/18 08:28:24;;;;;;;2.50;0.80;;;;;;;5.63;72.80;100413.34;107199;1260;72722;-39
2024/02/18 08:30:51;;;;;;;2.50;0.70;;;;;;;5.63;70.67;100413.45;107076;1256;60490;-40
2024/02/18 08:33:19;;;;;;;0.90;0.70;;;;;;;5.55;70.23;100413.52;107207;1256;60389;-40
2024/02/18 08:35:47;;;;;;;1.20;0.70;;;;;;;5.44;70.08;100415.50;107225;1260;73825;-39
2024/02/18 08:38:14;;;;;;;1.90;1.20;;;;;;;5.38;70.53;100415.84;107205;1256;68432;-40
2024/02/18 08:40:42;;;;;;;2.60;1.30;;;;;;;5.39;71.26;100421.14;107235;1257;72731;-40
2024/02/18 08:43:09;;;;;;;2.10;0.80;;;;;;;5.45;71.40;100426.08;107058;1259;60425;-39
2024/02/18 08:45:37;;;;;;;0.60;0.60;;;;;;;5.52;70.35;100428.30;107108;1261;60287;-39
2024/02/18 08:48:05;;;;;;;0.60;0.60;;;;;;;5.54;69.37;100431.34;107074;1256;72879;-40
2024/02/18 08:50:33;;;;;;;1.50;0.90;;;;;;;5.54;69.50;100438.71;107102;1256;68902;-39
2024/02/18 08:53:02;;;;;;;0.80;0.80;;;;;;;5.50;68.98;100436.73;107213;1257;72715;-39
2024/02/18 08:55:29;;;;;;;1.00;0.90;;;;;;;5.38;68.94;100438.05;107202;1257;60544;-40
2024/02/18 08:57:57;;;;;;;0.90;0.70;;;;;;;5.29;69.30;100444.90;107211;1257;60406;-40
2024/02/18 09:00:25;;;;;;;1.20;0.90;;;;;;;5.23;69.55;100451.94;107239;1256;73839;-39
2024/02/18 09:02:52;;;;;;;1.20;0.90;;;;;;;5.18;69.23;100458.39;107071;1258;67191;-39
2024/02/18 09:05:20;;;;;;;0.90;0.80;;;;;;;5.03;69.19;100462.08;107244;1258;71335;-40
2024/02/18 09:07:49;;;;;;;1.00;0.90;;;;;;;4.88;69.56;100468.15;107169;1257;60410;-40
2024/02/18 09:10:17;;;;;;;0.70;0.60;;;;;;;4.73;70.00;100471.89;107209;1256;60364;-39
2024/02/18 09:12:45;;;;;;;0.60;0.40;;;;;;;4.61;69.65;100478.10;107121;1258;73939;-40
2024/02/18 09:15:12;;;;;;;1.20;0.70;;;;;;;4.50;69.65;100483.80;107097;1258;68667;-39
2024/02/18 09:17:40;;;;;;;0.70;0.60;;;;;;;4.42;70.00;100490.48;107193;1257;72726;-39
2024/02/18 09:20:08;;;;;;;0.80;0.70;;;;;;;4.34;70.19;100490.42;107206;1261;60876;-39
2024/02/18 09:22:36;;;;;;;0.90;0.80;;;;;;;4.29;70.67;100493.56;107267;1256;60320;-39
2024/02/18 09:25:04;;;;;;;1.00;0.70;;;;;;;4.26;71.07;100493.11;107227;1262;73073;-40
2024/02/18 09:27:32;;;;;;;1.60;0.90;;;;;;;4.22;70.13;100492.90;107221;1260;68407;-39
2024/02/18 09:30:00;;;;;;;0.80;0.60;;;;;;;4.16;69.51;100499.80;105659;1257;1003018;-39
2024/02/18 09:32:27;;;;;;;0.90;0.60;;;;;;;4.10;69.03;100501.16;107211;1257;60409;-40
2024/02/18 09:34:55;;;;;;;0.60;0.60;;;;;;;4.03;68.93;100501.58;107236;1262;60614;-39
2024/02/18 09:37:24;;;;;;;0.50;0.40;;;;;;;3.98;68.86;100499.16;107183;1256;73970;-40
2024/02/18 09:39:52;;;;;;;0.40;0.40;;;;;;;3.98;69.38;100500.73;107089;1261;69134;-39
2024/02/18 09:42:20;;;;;;;0.70;0.60;;;;;;;4.01;70.13;100504.66;107247;1257;71463;-40
2024/02/18 09:44:48;;;;;;;0.80;0.70;;;;;;;4.03;70.43;100505.33;107186;1262;60328;-40
2024/02/18 09:47:15;;;;;;;0.70;0.70;;;;;;;4.01;70.19;100503.43;107197;1256;60472;-40
2024/02/18 09:49:43;;;;;;;2.90;0.90;;;;;;;3.94;70.60;100507.98;107220;1257;73140;-40
2024/02/18 09:52:11;;;;;;;1.60;1.20;;;;;;;3.82;71.40;100499.42;107211;1262;68416;-39
2024/02/18 09:54:39;;;;;;;1.00;0.80;;;;;;;3.88;71.99;100510.17;107180;1261;72685;-39
2024/02/18 09:57:07;;;;;;;0.80;0.80;;;;;;;3.88;72.47;100513.34;107079;1261;60878;-39
2024/02/18 09:59:35;;;;;;;1.00;0.80;;;;;;;3.88;73.35;100520.48;107146;1256;60284;-39
2024/02/18 10:02:02;;;;;;;1.10;0.90;;;;;;;3.86;73.09;100521.65;107099;1258;73872;-39
2024/02/18 10:04:30;;;;;;;1.30;0.80;;;;;;;3.82;73.04;100524.38;105526;1257;1003456;-39
2024/02/18 10:06:58;;;;;;;1.20;0.90;;;;;;;3.78;73.70;100520.98;107045;1258;71592;-39
2024/02/18 10:09:26;;;;;;;1.10;0.80;;;;;;;3.80;74.30;100524.88;107090;1262;60514;-40
2024/02/18 10:11:54;;;;;;;1.90;1.20;;;;;;;3.87;74.43;100528.75;107096;1256;60292;-39
2024/02/18 10:14:22;;;;;;;2.40;1.30;;;;;;;3.87;74.44;100528.64;106963;1256;71580;-39
2024/02/18 10:16:50;;;;;;;2.60;1.70;;;;;;;3.85;74.70;100529.81;107264;1257;67123;-40
2024/02/18 10:19:18;;;;;;;1.60;1.20;;;;;;;3.84;74.46;100530.63;107174;1261;71784;-40
2024/02/18 10:21:45;;;;;;;1.40;1.00;;;;;;;3.85;74.62;100529.48;107170;1261;60892;-40
2024/02/18 10:24:13;;;;;;;2.50;1.80;;;;;;;3.90;74.02;100526.58;107119;1257;60436;-40
2024/02/18 10:26:42;;;;;;;1.80;1.60;;;;;;;3.92;73.25;100529.62;107280;1256;73814;-40
2024/02/18 10:29:12;;;;;;;4.00;3.30;;;;;;;3.91;72.77;100529.27;107201;1263;68497;-39
2024/02/18 10:31:40;;;;;;;4.60;3.90;;;;;;;3.92;72.86;100526.81;107232;1262;73210;-39
2024/02/18 10:34:08;;;;;;;1.40;1.30;;;;;;;3.96;72.59;100527.53;107187;1262;60440;-39
2024/02/18 10:36:36;;;;;;;1.40;0.90;;;;;;;4.02;71.28;100522.86;107289;1258;60491;-39
2024/02/18 10:39:04;;;;;;;0.80;0.80;;;;;;;4.04;69.29;100522.33;107292;1260;74296;-40
2024/02/18 10:41:36;;;;;;;1.20;0.70;;;;;;;4.05;68.79;100528.77;107109;1263;67089;-39
2024/02/18 10:44:11;;;;;;;0.90;0.60;;;;;;;4.04;68.24;100525.17;107186;1261;72671;-39
2024/02/18 10:46:40;;;;;;;0.80;0.60;;;;;;;4.05;68.24;100531.55;107184;1257;60392;-40
2024/02/18 10:49:17;;;;;;;1.40;1.10;;;;;;;4.03;68.02;100533.14;107198;1259;60402;-40
2024/02/18 10:51:50;;;;;;;1.30;0.90;;;;;;;3.96;68.32;100532.58;107247;1262;73925;-40
2024/02/18 10:54:41;;;;;;;1.20;0.90;;;;;;;3.89;68.41;100535.88;107225;1262;67982;-39
2024/02/18 10:57:11;;;;;;;2.60;1.10;;;;;;;3.81;69.07;100538.65;107204;1257;71478;-40
2024/02/18 11:00:02;;;;;;;1.30;1.10;;;;;;;3.78;69.60;100540.14;107061;1257;60101;-40
2024/02/18 11:03:12;;;;;;;1.80;1.40;;;;;;;3.76;69.84;100542.95;107043;1256;60398;-40
2024/02/18 11:05:39;;;;;;;2.80;1.30;;;;;;;3.73;69.34;100540.23;106959;1257;72915;-40
2024/02/18 11:08:07;;;;;;;2.10;1.20;;;;;;;3.64;68.84;100548.33;107102;1263;67137;-40
2024/02/18 11:10:35;;;;;;;1.00;0.70;;;;;;;3.55;69.70;100551.48;106935;1257;72711;-40
2024/02/18 11:13:03;;;;;;;2.00;1.40;;;;;;;3.47;70.82;100550.98;107175;1257;60382;-40
2024/02/18 11:15:32;;;;;;;2.70;1.60;;;;;;;3.39;71.14;100552.16;107027;1257;60075;-39
2024/02/18 11:17:59;;;;;;;5.00;2.10;;;;;;;3.34;70.98;100550.08;107076;1258;74425;-40
2024/02/18 11:20:27;;;;;;;1.70;1.40;;;;;;;3.30;70.89;100548.81;107107;1263;66733;-40
2024/02/18 11:22:56;;;;;;;3.60;2.50;;;;;;;3.29;70.91;100551.69;107214;1258;71119;-40
2024/02/18 11:25:24;;;;;;;2.60;1.90;;;;;;;3.27;71.01;100554.10;107245;1258;59663;-39